EGTEEGAA

Guest
Details From EGTE - Exeter
To EGAA - Belfast Aldergrove
Flight Number -
Tags Decoded
Created
Modified
Stats Distance 256 nm / 475 km
Max Altitude 0 ft / 0 m
Waypoints 2
Social Downloads 2
Likes 0
Share VATSIM

Download

Looking for another format? Having issues loading an existing format? Contact us
Advertisement - Login to hide

Notes

Decoded

Route

EGTE EGAA

ID Type Via Altitude Latitude Longitude Leg Dist Tot Dist Heading (true) Name
O EGTE APT - 0 ft / 0 m 50.73851˚ -3.42704˚ - 0 nm - -
O EGAA APT - 0 ft / 0 m 54.65792˚ -6.22862˚ 256 nm 256 nm 338° / 335° -

Altitude Profile

Advertisement - Login to hide

Weather


0- 5 10 15 20 25 30 35+ Temperature / ° C

Clouds and Precipitation
Forecast for 2017-12-12 12:00 UTC. Updated an hour ago

Ground ~20,000 ft ~40,000 ft Winds

EGTE

Details ICAO EGTE (EXT)
Name Exeter
Region United Kingdom
Timezone Europe/London (UTC+0.0)
Stats Elevation 102 ft / 31 m (AMSL)
Location 50.734260° -3.414000°
Runways 1
Magnetic Variation 1.514° W

METAR

EGTE 121020Z VRB02KT 9999 FEW025 M01/M01 Q1010

Decode

TAF

Not found

Departure Runways

ID Width Length Bearing (true) Bearing (mag) Surface Threshold Offset Overrun Length
08 151 ft / 46 m 6,666 ft / 2,032 m 76.09° 77.60° Asphalt 0 ft / 0 m 0 ft / 0 m
26 151 ft / 46 m 6,666 ft / 2,032 m 256.11° 257.62° Asphalt 0 ft / 0 m 0 ft / 0 m

EGAA

Details ICAO EGAA (BFS)
Name Belfast Aldergrove
Region United Kingdom
Timezone Europe/London (UTC+0.0)
Stats Elevation 268 ft / 82 m (AMSL)
Location 54.653878° -6.220006°
Runways 2
Magnetic Variation 3.241° W

METAR

EGAA 121020Z 17005KT 9999 FEW012 01/01 Q1003

Decode

TAF

TAF AMD EGAA 120714Z 1207/1306 16007KT 9999 FEW025 PROB30 TEMPO 1207/1212 3000 BR BKN004 BECMG 1209/1212 22012KT BECMG 1212/1215 7000 RADZ BKN010 PROB40 TEMPO 1213/1218 20015G25KT 4000 BKN006 BECMG 1216/1219 9999 NSW SCT025 PROB40 TEMPO 1300/1306 21015G25KT 5000 SHRA

Decode

Destination Runways

ID Width Length Bearing (true) Bearing (mag) Surface Threshold Offset Overrun Length
07 148 ft / 45 m 9,095 ft / 2,772 m 65.01° 68.25° Asphalt 0 ft / 0 m 0 ft / 0 m
17 148 ft / 45 m 5,896 ft / 1,797 m 161.98° 165.22° Asphalt 525 ft / 160 m 0 ft / 0 m
25 148 ft / 45 m 9,095 ft / 2,772 m 245.05° 248.29° Asphalt 0 ft / 0 m 0 ft / 0 m
35 148 ft / 45 m 5,896 ft / 1,797 m 341.99° 345.23° Asphalt 502 ft / 153 m 0 ft / 0 m

Approach Navaids

Runway Type Ident Frequency Range Bearing (true) Bearing (mag) Slope Elevation
17 Localiser IFT 110.90 MHz 18 nm / 33 km 162.00° 165.24° - 258 ft / 79 m (AMSL)
17 Glidescope IFT 110.90 MHz 10 nm / 19 km 161.99° 165.23° 3.00° 253 ft / 77 m (AMSL)
17 DME IFT 110.90 MHz 18 nm / 33 km - - - 253 ft / 77 m (AMSL)
25 Localiser IAG 109.90 MHz 18 nm / 33 km 245.01° 248.26° - 206 ft / 63 m (AMSL)
25 Glidescope IAG 109.90 MHz 10 nm / 19 km 245.03° 248.27° 3.00° 305 ft / 93 m (AMSL)
25 DME IAG 109.90 MHz 18 nm / 33 km - - - 305 ft / 93 m (AMSL)

Popular Alternatives